Rufus, OR (97050)

10:08 AM PDT on October 31, 2014 (GMT -0700)
Easy Acres | Change Station
CLOSE
Current Station
Personal Weather Station
Location: Goldendale, WA
Elevation: 1733 ft
Nearby Weather Stations

Elev 1733 ft 45.80 °N, 120.82 °W | Updated 36 seconds ago

Rain
Rain
49.0 °F
Feels Like 45 °F
N
10.0
Wind Variable Wind from SW
Gusts 22.0 mph

Today
High -- | Low -- °F
--% Chance of Precip.
Yesterday
High -- | Low -- °F
Precip. -- in
7:41 AM 5:50 PM
First Quarter, 57% visible
Pressure 29.78 in
Visibility 10.0 miles
Clouds Few 4400 ft
Mostly Cloudy 6000 ft
Overcast 7000 ft
Windchill 45 °F
Dew Point 47 °F
Humidity 93%
Rainfall 0.47 in
Snow Depth Not available.
UV 0 out of 12
Pollen .30 out of 12
Air Quality Not available.
Flu Activity Not available.
METAR KDLS 311653Z AUTO 33007KT 10SM FEW044 BKN060 OVC070 12/09 A2977 RMK AO2 RAE26 SLP082 P0004 T01220094

More Conditions Fewer Conditions

Pressure 29.78 in
Visibility 10.0 miles
Clouds Few 4400 ft
Mostly Cloudy 6000 ft
Overcast 7000 ft
Windchill 45 °F
Dew Point 47 °F
Humidity 93%
Rainfall 0.47 in
Snow Depth Not available.
UV 0 out of 12
Pollen .30 out of 12
Air Quality Not available.
Flu Activity Not available.
METAR KDLS 311653Z AUTO 33007KT 10SM FEW044 BKN060 OVC070 12/09 A2977 RMK AO2 RAE26 SLP082 P0004 T01220094

More Conditions Fewer Conditions

10-Day Weather Forecast

Almanac

Astronomy

Oct. 31, 2014 Rise Set
Actual Time
Civil Twilight
Nautical Twilight
Astronomical Twilight
Moon
Length of Visible Light
Length of Day
Tomorrow will be .
, % of the Moon is Illuminated

Today's Extremes

State Highs State Lows

Community

WunderPhotos

Upload Photos

1,766,660 photos uploaded!

WunderBlogs® & News

Nearby

Air Quality

  Air Quality AQ Index Pollutant
Not available.

Snow Depth

Station Depth Elevation

Earthquake Activity

City Distance Mag. Time & Date
Minimum magnitude displayed is 2.5.

Coastal Water Temperatures

Place Temperature

Nearby Weather Stations